sensor_id;sensor_type;location;lat;lon;timestamp;pressure;altitude;pressure_sealevel;temperature;humidity
22241;BME280;11289;52.524;13.694;2024-01-30T00:02:13;102328.44;;;0.71;75.54
22241;BME280;11289;52.524;13.694;2024-01-30T00:04:39;102335.81;;;0.70;75.38
22241;BME280;11289;52.524;13.694;2024-01-30T00:07:05;102339.97;;;0.73;75.47
22241;BME280;11289;52.524;13.694;2024-01-30T00:09:31;102329.72;;;0.68;75.45
22241;BME280;11289;52.524;13.694;2024-01-30T00:11:57;102328.66;;;0.69;75.45
22241;BME280;11289;52.524;13.694;2024-01-30T00:14:23;102337.91;;;0.68;75.26
22241;BME280;11289;52.524;13.694;2024-01-30T00:16:49;102333.13;;;0.63;75.29
22241;BME280;11289;52.524;13.694;2024-01-30T00:19:16;102333.13;;;0.63;75.43
22241;BME280;11289;52.524;13.694;2024-01-30T00:21:42;102333.78;;;0.59;75.37
22241;BME280;11289;52.524;13.694;2024-01-30T00:24:08;102334.84;;;0.58;75.47
22241;BME280;11289;52.524;13.694;2024-01-30T00:26:34;102328.38;;;0.52;75.61
22241;BME280;11289;52.524;13.694;2024-01-30T00:28:59;102337.41;;;0.52;75.44
22241;BME280;11289;52.524;13.694;2024-01-30T00:31:26;102343.72;;;0.53;75.83
22241;BME280;11289;52.524;13.694;2024-01-30T00:33:52;102339.53;;;0.50;75.87
22241;BME280;11289;52.524;13.694;2024-01-30T00:36:18;102332.44;;;0.43;75.99
22241;BME280;11289;52.524;13.694;2024-01-30T00:38:44;102337.69;;;0.44;75.90
22241;BME280;11289;52.524;13.694;2024-01-30T00:41:10;102322.16;;;0.38;75.97
22241;BME280;11289;52.524;13.694;2024-01-30T00:43:36;102337.69;;;0.44;75.99
22241;BME280;11289;52.524;13.694;2024-01-30T00:46:02;102335.38;;;0.41;75.96
22241;BME280;11289;52.524;13.694;2024-01-30T00:48:29;102328.00;;;0.42;75.86
22241;BME280;11289;52.524;13.694;2024-01-30T00:50:55;102333.09;;;0.38;75.82
22241;BME280;11289;52.524;13.694;2024-01-30T00:53:20;102333.09;;;0.38;76.05
22241;BME280;11289;52.524;13.694;2024-01-30T00:55:46;102326.84;;;0.31;76.31
22241;BME280;11289;52.524;13.694;2024-01-30T00:58:12;102340.06;;;0.34;76.20
22241;BME280;11289;52.524;13.694;2024-01-30T01:00:38;102324.13;;;0.24;76.19
22241;BME280;11289;52.524;13.694;2024-01-30T01:03:04;102336.53;;;0.27;76.23
22241;BME280;11289;52.524;13.694;2024-01-30T01:05:30;102341.56;;;0.30;76.29
22241;BME280;11289;52.524;13.694;2024-01-30T01:07:56;102327.91;;;0.23;76.21
22241;BME280;11289;52.524;13.694;2024-01-30T01:10:23;102341.16;;;0.26;76.59
22241;BME280;11289;52.524;13.694;2024-01-30T01:12:49;102335.28;;;0.23;76.19
22241;BME280;11289;52.524;13.694;2024-01-30T01:15:15;102335.72;;;0.20;76.22
22241;BME280;11289;52.524;13.694;2024-01-30T01:17:41;102330.25;;;0.20;76.38
22241;BME280;11289;52.524;13.694;2024-01-30T01:20:08;102337.41;;;0.21;76.46
22241;BME280;11289;52.524;13.694;2024-01-30T01:22:34;102332.81;;;0.14;76.46
22241;BME280;11289;52.524;13.694;2024-01-30T01:25:00;102327.13;;;0.16;76.83
22241;BME280;11289;52.524;13.694;2024-01-30T01:27:27;102325.91;;;0.12;76.40
22241;BME280;11289;52.524;13.694;2024-01-30T01:29:53;102317.50;;;0.07;76.58
22241;BME280;11289;52.524;13.694;2024-01-30T01:32:19;102319.81;;;0.10;76.32
22241;BME280;11289;52.524;13.694;2024-01-30T01:34:45;102314.78;;;0.07;76.78
22241;BME280;11289;52.524;13.694;2024-01-30T01:37:11;102310.81;;;0.03;76.81
22241;BME280;11289;52.524;13.694;2024-01-30T01:39:37;102308.28;;;0.01;76.76
22241;BME280;11289;52.524;13.694;2024-01-30T01:42:04;102315.00;;;0.05;76.94
22241;BME280;11289;52.524;13.694;2024-01-30T01:44:30;102303.28;;;-0.02;77.16
22241;BME280;11289;52.524;13.694;2024-01-30T01:46:56;102301.81;;;-0.05;77.17
22241;BME280;11289;52.524;13.694;2024-01-30T01:49:27;102310.19;;;0.01;77.09
22241;BME280;11289;52.524;13.694;2024-01-30T01:51:54;102310.19;;;0.01;77.44
22241;BME280;11289;52.524;13.694;2024-01-30T01:54:22;102313.38;;;-0.03;77.43
22241;BME280;11289;52.524;13.694;2024-01-30T01:56:50;102302.03;;;-0.06;77.28
22241;BME280;11289;52.524;13.694;2024-01-30T01:59:17;102311.69;;;-0.04;77.36
22241;BME280;11289;52.524;13.694;2024-01-30T02:01:43;102308.56;;;-0.07;77.19
22241;BME280;11289;52.524;13.694;2024-01-30T02:04:11;102304.38;;;-0.10;77.51
22241;BME280;11289;52.524;13.694;2024-01-30T02:06:37;102313.22;;;-0.14;77.42
22241;BME280;11289;52.524;13.694;2024-01-30T02:09:04;102311.09;;;-0.12;77.59
22241;BME280;11289;52.524;13.694;2024-01-30T02:11:30;102314.44;;;-0.10;77.53
22241;BME280;11289;52.524;13.694;2024-01-30T02:13:56;102308.59;;;-0.14;77.77
22241;BME280;11289;52.524;13.694;2024-01-30T02:16:22;102312.38;;;-0.15;77.64
22241;BME280;11289;52.524;13.694;2024-01-30T02:18:48;102322.03;;;-0.12;78.00
22241;BME280;11289;52.524;13.694;2024-01-30T02:21:15;102306.31;;;-0.17;77.68
22241;BME280;11289;52.524;13.694;2024-01-30T02:23:43;102297.69;;;-0.21;77.77
22241;BME280;11289;52.524;13.694;2024-01-30T02:26:10;102296.66;;;-0.20;77.56
22241;BME280;11289;52.524;13.694;2024-01-30T02:28:37;102300.41;;;-0.21;77.91
22241;BME280;11289;52.524;13.694;2024-01-30T02:31:04;102308.00;;;-0.16;77.94
22241;BME280;11289;52.524;13.694;2024-01-30T02:33:30;102305.66;;;-0.19;77.81
22241;BME280;11289;52.524;13.694;2024-01-30T02:35:56;102295.84;;;-0.27;78.24
22241;BME280;11289;52.524;13.694;2024-01-30T02:38:22;102303.38;;;-0.22;78.03
22241;BME280;11289;52.524;13.694;2024-01-30T02:40:49;102302.31;;;-0.21;78.42
22241;BME280;11289;52.524;13.694;2024-01-30T02:43:16;102307.78;;;-0.21;78.42
22241;BME280;11289;52.524;13.694;2024-01-30T02:45:42;102300.25;;;-0.26;78.39
22241;BME280;11289;52.524;13.694;2024-01-30T02:48:08;102298.56;;;-0.27;78.52
22241;BME280;11289;52.524;13.694;2024-01-30T02:50:34;102303.59;;;-0.24;78.24
22241;BME280;11289;52.524;13.694;2024-01-30T02:53:00;102308.22;;;-0.24;78.68
22241;BME280;11289;52.524;13.694;2024-01-30T02:55:26;102301.31;;;-0.27;78.42
22241;BME280;11289;52.524;13.694;2024-01-30T02:57:52;102289.13;;;-0.31;78.67
22241;BME280;11289;52.524;13.694;2024-01-30T03:00:19;102292.50;;;-0.29;78.70
22241;BME280;11289;52.524;13.694;2024-01-30T03:02:45;102295.63;;;-0.25;78.87
22241;BME280;11289;52.524;13.694;2024-01-30T03:05:11;102299.63;;;-0.28;78.95
22241;BME280;11289;52.524;13.694;2024-01-30T03:07:37;102296.06;;;-0.28;78.90
22241;BME280;11289;52.524;13.694;2024-01-30T03:10:06;102289.78;;;-0.29;79.02
22241;BME280;11289;52.524;13.694;2024-01-30T03:12:32;102284.75;;;-0.32;79.03
22241;BME280;11289;52.524;13.694;2024-01-30T03:14:58;102285.97;;;-0.28;79.50
22241;BME280;11289;52.524;13.694;2024-01-30T03:17:24;102276.97;;;-0.35;79.38
22241;BME280;11289;52.524;13.694;2024-01-30T03:19:50;102283.22;;;-0.28;79.81
22241;BME280;11289;52.524;13.694;2024-01-30T03:22:17;102280.13;;;-0.31;79.47
22241;BME280;11289;52.524;13.694;2024-01-30T03:24:43;102277.38;;;-0.31;79.45
22241;BME280;11289;52.524;13.694;2024-01-30T03:27:09;102278.22;;;-0.31;79.44
22241;BME280;11289;52.524;13.694;2024-01-30T03:29:35;102286.41;;;-0.31;79.90
22241;BME280;11289;52.524;13.694;2024-01-30T03:32:01;102282.84;;;-0.31;79.66
22241;BME280;11289;52.524;13.694;2024-01-30T03:34:27;102284.53;;;-0.30;79.56
22241;BME280;11289;52.524;13.694;2024-01-30T03:36:53;102279.69;;;-0.35;79.53
22241;BME280;11289;52.524;13.694;2024-01-30T03:39:19;102287.66;;;-0.33;79.93
22241;BME280;11289;52.524;13.694;2024-01-30T03:41:44;102278.88;;;-0.36;79.61
22241;BME280;11289;52.524;13.694;2024-01-30T03:44:11;102278.03;;;-0.36;79.97
22241;BME280;11289;52.524;13.694;2024-01-30T03:46:37;102280.78;;;-0.36;79.74
22241;BME280;11289;52.524;13.694;2024-01-30T03:49:03;102275.13;;;-0.41;79.66
22241;BME280;11289;52.524;13.694;2024-01-30T03:51:29;102278.28;;;-0.44;79.78
22241;BME280;11289;52.524;13.694;2024-01-30T03:53:55;102272.38;;;-0.41;79.89
22241;BME280;11289;52.524;13.694;2024-01-30T03:56:21;102276.78;;;-0.40;79.79
22241;BME280;11289;52.524;13.694;2024-01-30T03:58:47;102276.16;;;-0.42;79.90
22241;BME280;11289;52.524;13.694;2024-01-30T04:01:14;102280.34;;;-0.40;80.14
22241;BME280;11289;52.524;13.694;2024-01-30T04:03:41;102277.22;;;-0.43;80.14
22241;BME280;11289;52.524;13.694;2024-01-30T04:06:08;102282.47;;;-0.42;80.07
22241;BME280;11289;52.524;13.694;2024-01-30T04:08:34;102276.38;;;-0.44;79.95
22241;BME280;11289;52.524;13.694;2024-01-30T04:11:04;102272.22;;;-0.46;80.04
22241;BME280;11289;52.524;13.694;2024-01-30T04:13:32;102267.59;;;-0.53;80.07
22241;BME280;11289;52.524;13.694;2024-01-30T04:15:59;102262.56;;;-0.49;80.17
22241;BME280;11289;52.524;13.694;2024-01-30T04:18:27;102270.97;;;-0.50;80.17
22241;BME280;11289;52.524;13.694;2024-01-30T04:20:53;102269.06;;;-0.50;80.00
22241;BME280;11289;52.524;13.694;2024-01-30T04:23:19;102270.97;;;-0.57;80.40
22241;BME280;11289;52.524;13.694;2024-01-30T04:25:45;102287.56;;;-0.52;80.12
22241;BME280;11289;52.524;13.694;2024-01-30T04:28:11;102271.63;;;-0.62;80.00
22241;BME280;11289;52.524;13.694;2024-01-30T04:30:38;102270.38;;;-0.59;80.32
22241;BME280;11289;52.524;13.694;2024-01-30T04:33:04;102297.81;;;-0.54;80.39
22241;BME280;11289;52.524;13.694;2024-01-30T04:35:30;102294.06;;;-0.53;80.53
22241;BME280;11289;52.524;13.694;2024-01-30T04:37:56;102295.97;;;-0.54;80.55
22241;BME280;11289;52.524;13.694;2024-01-30T04:40:22;102285.88;;;-0.53;80.80
22241;BME280;11289;52.524;13.694;2024-01-30T04:42:48;102283.34;;;-0.55;80.96
22241;BME280;11289;52.524;13.694;2024-01-30T04:45:14;102270.97;;;-0.57;81.08
22241;BME280;11289;52.524;13.694;2024-01-30T04:47:40;102274.13;;;-0.54;80.55
22241;BME280;11289;52.524;13.694;2024-01-30T04:50:07;102276.63;;;-0.52;81.20
22241;BME280;11289;52.524;13.694;2024-01-30T04:52:33;102266.75;;;-0.53;81.08
22241;BME280;11289;52.524;13.694;2024-01-30T04:54:59;102271.41;;;-0.54;81.29
22241;BME280;11289;52.524;13.694;2024-01-30T04:57:25;102258.59;;;-0.60;81.33
22241;BME280;11289;52.524;13.694;2024-01-30T04:59:50;102268.03;;;-0.56;81.39
22241;BME280;11289;52.524;13.694;2024-01-30T05:02:16;102274.13;;;-0.54;81.54
22241;BME280;11289;52.524;13.694;2024-01-30T05:04:42;102267.81;;;-0.54;81.06
22241;BME280;11289;52.524;13.694;2024-01-30T05:07:08;102276.00;;;-0.54;81.43
22241;BME280;11289;52.524;13.694;2024-01-30T05:09:34;102272.44;;;-0.55;81.60
22241;BME280;11289;52.524;13.694;2024-01-30T05:12:00;102271.41;;;-0.54;81.76
22241;BME280;11289;52.524;13.694;2024-01-30T05:14:26;102268.03;;;-0.56;81.72
22241;BME280;11289;52.524;13.694;2024-01-30T05:16:52;102266.16;;;-0.55;81.71
22241;BME280;11289;52.524;13.694;2024-01-30T05:19:18;102262.34;;;-0.54;81.95
22241;BME280;11289;52.524;13.694;2024-01-30T05:21:44;102264.25;;;-0.55;81.64
22241;BME280;11289;52.524;13.694;2024-01-30T05:24:10;102271.41;;;-0.54;81.97
22241;BME280;11289;52.524;13.694;2024-01-30T05:26:36;102261.75;;;-0.56;81.88
22241;BME280;11289;52.524;13.694;2024-01-30T05:29:02;102260.69;;;-0.55;81.66
22241;BME280;11289;52.524;13.694;2024-01-30T05:31:28;102270.16;;;-0.58;82.03
22241;BME280;11289;52.524;13.694;2024-01-30T05:33:54;102267.19;;;-0.56;82.01
22241;BME280;11289;52.524;13.694;2024-01-30T05:36:20;102255.03;;;-0.60;82.07
22241;BME280;11289;52.524;13.694;2024-01-30T05:38:47;102269.09;;;-0.57;82.09
22241;BME280;11289;52.524;13.694;2024-01-30T05:41:13;102272.44;;;-0.55;81.91
22241;BME280;11289;52.524;13.694;2024-01-30T05:43:39;102264.69;;;-0.58;82.44
22241;BME280;11289;52.524;13.694;2024-01-30T05:46:06;102267.41;;;-0.58;82.36
22241;BME280;11289;52.524;13.694;2024-01-30T05:48:32;102264.25;;;-0.55;82.43
22241;BME280;11289;52.524;13.694;2024-01-30T05:50:58;102272.44;;;-0.55;82.19
22241;BME280;11289;52.524;13.694;2024-01-30T05:53:25;102267.19;;;-0.56;82.43
22241;BME280;11289;52.524;13.694;2024-01-30T05:55:51;102263.66;;;-0.57;82.22
22241;BME280;11289;52.524;13.694;2024-01-30T05:58:17;102262.78;;;-0.57;82.07
22241;BME280;11289;52.524;13.694;2024-01-30T06:00:43;102260.28;;;-0.59;82.36
22241;BME280;11289;52.524;13.694;2024-01-30T06:03:09;102276.44;;;-0.57;82.58
22241;BME280;11289;52.524;13.694;2024-01-30T06:05:35;102265.34;;;-0.62;82.39
22241;BME280;11289;52.524;13.694;2024-01-30T06:08:02;102271.19;;;-0.59;82.63
22241;BME280;11289;52.524;13.694;2024-01-30T06:10:28;102276.03;;;-0.61;82.59
22241;BME280;11289;52.524;13.694;2024-01-30T06:12:54;102261.75;;;-0.63;82.88
22241;BME280;11289;52.524;13.694;2024-01-30T06:15:19;102275.19;;;-0.61;82.64
22241;BME280;11289;52.524;13.694;2024-01-30T06:17:46;102260.94;;;-0.63;82.97
22241;BME280;11289;52.524;13.694;2024-01-30T06:20:12;102271.63;;;-0.62;83.10
22241;BME280;11289;52.524;13.694;2024-01-30T06:22:38;102271.00;;;-0.64;83.32
22241;BME280;11289;52.524;13.694;2024-01-30T06:25:04;102273.53;;;-0.62;83.24
22241;BME280;11289;52.524;13.694;2024-01-30T06:27:30;102275.41;;;-0.63;83.24
22241;BME280;11289;52.524;13.694;2024-01-30T06:29:56;102271.19;;;-0.65;83.40
22241;BME280;11289;52.524;13.694;2024-01-30T06:32:22;102264.09;;;-0.66;82.87
22241;BME280;11289;52.524;13.694;2024-01-30T06:34:47;102266.81;;;-0.66;83.57
22241;BME280;11289;52.524;13.694;2024-01-30T06:37:13;102265.97;;;-0.67;83.29
22241;BME280;11289;52.524;13.694;2024-01-30T06:39:39;102269.34;;;-0.65;83.21
22241;BME280;11289;52.524;13.694;2024-01-30T06:42:05;102266.59;;;-0.65;82.97
22241;BME280;11289;52.524;13.694;2024-01-30T06:44:31;102254.22;;;-0.67;82.85
22241;BME280;11289;52.524;13.694;2024-01-30T06:46:57;102251.72;;;-0.69;82.67
22241;BME280;11289;52.524;13.694;2024-01-30T06:49:23;102264.09;;;-0.66;82.87
22241;BME280;11289;52.524;13.694;2024-01-30T06:51:49;102266.59;;;-0.65;83.49
22241;BME280;11289;52.524;13.694;2024-01-30T06:54:15;102266.81;;;-0.66;83.11
22241;BME280;11289;52.524;13.694;2024-01-30T06:56:41;102258.41;;;-0.65;83.67
22241;BME280;11289;52.524;13.694;2024-01-30T06:59:06;102252.31;;;-0.67;83.56
22241;BME280;11289;52.524;13.694;2024-01-30T07:01:34;102258.41;;;-0.65;83.68
22241;BME280;11289;52.524;13.694;2024-01-30T07:04:00;102265.94;;;-0.60;83.77
22241;BME280;11289;52.524;13.694;2024-01-30T07:06:26;102266.16;;;-0.62;83.92
22241;BME280;11289;52.524;13.694;2024-01-30T07:08:52;102270.75;;;-0.56;84.31
22241;BME280;11289;52.524;13.694;2024-01-30T07:11:21;102269.72;;;-0.55;84.06
22241;BME280;11289;52.524;13.694;2024-01-30T07:13:48;102265.94;;;-0.54;84.19
22241;BME280;11289;52.524;13.694;2024-01-30T07:16:15;102268.03;;;-0.56;84.20
22241;BME280;11289;52.524;13.694;2024-01-30T07:18:41;102257.13;;;-0.56;84.60
22241;BME280;11289;52.524;13.694;2024-01-30T07:21:07;102264.44;;;-0.49;84.08
22241;BME280;11289;52.524;13.694;2024-01-30T07:23:33;102262.34;;;-0.47;84.11
22241;BME280;11289;52.524;13.694;2024-01-30T07:26:01;102246.19;;;-0.49;84.85
22241;BME280;11289;52.524;13.694;2024-01-30T07:28:27;102253.28;;;-0.41;84.52
22241;BME280;11289;52.524;13.694;2024-01-30T07:30:53;102256.41;;;-0.38;84.74
22241;BME280;11289;52.524;13.694;2024-01-30T07:33:19;102258.50;;;-0.33;85.04
22241;BME280;11289;52.524;13.694;2024-01-30T07:35:45;102257.00;;;-0.29;84.85
22241;BME280;11289;52.524;13.694;2024-01-30T07:38:11;102265.78;;;-0.20;85.04
22241;BME280;11289;52.524;13.694;2024-01-30T07:40:37;102258.41;;;-0.20;84.86
22241;BME280;11289;52.524;13.694;2024-01-30T07:43:03;102256.94;;;-0.15;85.05
22241;BME280;11289;52.524;13.694;2024-01-30T07:45:29;102257.09;;;-0.10;85.04
22241;BME280;11289;52.524;13.694;2024-01-30T07:47:59;102261.69;;;-0.04;85.19
22241;BME280;11289;52.524;13.694;2024-01-30T07:50:28;102270.69;;;0.03;85.29
22241;BME280;11289;52.524;13.694;2024-01-30T07:52:55;102250.50;;;0.04;85.22
22241;BME280;11289;52.524;13.694;2024-01-30T07:55:22;102260.34;;;0.12;85.05
22241;BME280;11289;52.524;13.694;2024-01-30T07:57:54;102257.97;;;0.22;85.11
22241;BME280;11289;52.524;13.694;2024-01-30T08:00:21;102258.13;;;0.27;85.23
22241;BME280;11289;52.524;13.694;2024-01-30T08:02:53;102248.63;;;0.30;85.06
22241;BME280;11289;52.524;13.694;2024-01-30T08:05:23;102225.53;;;0.26;85.25
22241;BME280;11289;52.524;13.694;2024-01-30T08:07:49;102228.16;;;0.39;84.97
22241;BME280;11289;52.524;13.694;2024-01-30T08:10:15;102238.59;;;0.49;84.75
22241;BME280;11289;52.524;13.694;2024-01-30T08:12:41;102235.03;;;0.48;85.17
22241;BME280;11289;52.524;13.694;2024-01-30T08:15:07;102247.75;;;0.61;84.87
22241;BME280;11289;52.524;13.694;2024-01-30T08:17:34;102247.09;;;0.66;84.89
22241;BME280;11289;52.524;13.694;2024-01-30T08:20:00;102246.19;;;0.72;85.00
22241;BME280;11289;52.524;13.694;2024-01-30T08:22:26;102236.47;;;0.76;85.10
22241;BME280;11289;52.524;13.694;2024-01-30T08:24:51;102239.56;;;0.80;84.94
22241;BME280;11289;52.524;13.694;2024-01-30T08:27:17;102242.03;;;0.88;84.48
22241;BME280;11289;52.524;13.694;2024-01-30T08:29:43;102234.13;;;0.98;84.34
22241;BME280;11289;52.524;13.694;2024-01-30T08:32:09;102239.53;;;1.05;84.23
22241;BME280;11289;52.524;13.694;2024-01-30T08:34:35;102231.09;;;1.07;83.69
22241;BME280;11289;52.524;13.694;2024-01-30T08:37:01;102239.38;;;1.18;84.14
22241;BME280;11289;52.524;13.694;2024-01-30T08:39:27;102236.19;;;1.21;83.49
22241;BME280;11289;52.524;13.694;2024-01-30T08:41:53;102232.53;;;1.28;83.61
22241;BME280;11289;52.524;13.694;2024-01-30T08:44:19;102225.94;;;1.35;83.26
22241;BME280;11289;52.524;13.694;2024-01-30T08:46:45;102224.78;;;1.43;83.54
22241;BME280;11289;52.524;13.694;2024-01-30T08:49:11;102224.47;;;1.51;83.28
22241;BME280;11289;52.524;13.694;2024-01-30T08:51:39;102228.31;;;1.62;83.57
22241;BME280;11289;52.524;13.694;2024-01-30T08:54:05;102221.47;;;1.71;83.42
22241;BME280;11289;52.524;13.694;2024-01-30T08:56:31;102216.75;;;1.79;83.81
22241;BME280;11289;52.524;13.694;2024-01-30T08:58:57;102225.81;;;1.91;83.07
22241;BME280;11289;52.524;13.694;2024-01-30T09:01:23;102218.09;;;2.00;82.92
22241;BME280;11289;52.524;13.694;2024-01-30T09:03:50;102217.16;;;2.06;82.77
22241;BME280;11289;52.524;13.694;2024-01-30T09:06:16;102222.91;;;2.16;81.87
22241;BME280;11289;52.524;13.694;2024-01-30T09:08:42;102219.97;;;2.30;81.96
22241;BME280;11289;52.524;13.694;2024-01-30T09:11:09;102221.03;;;2.40;82.13
22241;BME280;11289;52.524;13.694;2024-01-30T09:13:36;102219.59;;;2.50;80.54
22241;BME280;11289;52.524;13.694;2024-01-30T09:16:02;102223.31;;;2.67;80.12
22241;BME280;11289;52.524;13.694;2024-01-30T09:18:28;102216.75;;;2.80;79.43
22241;BME280;11289;52.524;13.694;2024-01-30T09:20:54;102231.41;;;2.97;79.77
22241;BME280;11289;52.524;13.694;2024-01-30T09:23:20;102227.56;;;3.10;78.12
22241;BME280;11289;52.524;13.694;2024-01-30T09:25:46;102222.19;;;3.27;77.27
22241;BME280;11289;52.524;13.694;2024-01-30T09:28:12;102216.53;;;3.46;78.03
22241;BME280;11289;52.524;13.694;2024-01-30T09:30:38;102217.16;;;3.65;77.50
22241;BME280;11289;52.524;13.694;2024-01-30T09:33:04;102222.47;;;3.83;75.58
22241;BME280;11289;52.524;13.694;2024-01-30T09:35:30;102224.66;;;3.98;75.63
22241;BME280;11289;52.524;13.694;2024-01-30T09:37:56;102217.78;;;4.13;74.92
22241;BME280;11289;52.524;13.694;2024-01-30T09:40:23;102232.75;;;4.22;73.49
22241;BME280;11289;52.524;13.694;2024-01-30T09:42:50;102225.78;;;4.31;72.96
22241;BME280;11289;52.524;13.694;2024-01-30T09:45:20;102225.97;;;4.42;71.90
22241;BME280;11289;52.524;13.694;2024-01-30T09:47:46;102224.13;;;4.47;70.49
22241;BME280;11289;52.524;13.694;2024-01-30T09:50:13;102222.88;;;4.55;71.64
22241;BME280;11289;52.524;13.694;2024-01-30T09:52:39;102218.53;;;4.59;71.05
22241;BME280;11289;52.524;13.694;2024-01-30T09:55:07;102223.59;;;4.67;70.60
22241;BME280;11289;52.524;13.694;2024-01-30T09:57:34;102216.00;;;4.75;70.72
22241;BME280;11289;52.524;13.694;2024-01-30T10:00:00;102208.91;;;4.79;69.62
22241;BME280;11289;52.524;13.694;2024-01-30T10:02:26;102202.88;;;4.82;69.63
22241;BME280;11289;52.524;13.694;2024-01-30T10:04:52;102206.03;;;4.91;69.21
22241;BME280;11289;52.524;13.694;2024-01-30T10:07:19;102205.53;;;4.94;68.51
22241;BME280;11289;52.524;13.694;2024-01-30T10:09:45;102215.84;;;5.03;69.05
22241;BME280;11289;52.524;13.694;2024-01-30T10:12:12;102213.75;;;5.11;66.54
22241;BME280;11289;52.524;13.694;2024-01-30T10:14:42;102213.31;;;5.19;67.24
22241;BME280;11289;52.524;13.694;2024-01-30T10:17:09;102207.13;;;5.29;67.73
22241;BME280;11289;52.524;13.694;2024-01-30T10:19:36;102198.53;;;5.25;67.06
22241;BME280;11289;52.524;13.694;2024-01-30T10:22:03;102195.88;;;5.35;65.98
22241;BME280;11289;52.524;13.694;2024-01-30T10:24:29;102186.03;;;5.39;66.15
22241;BME280;11289;52.524;13.694;2024-01-30T10:26:55;102190.81;;;5.49;65.17
22241;BME280;11289;52.524;13.694;2024-01-30T10:29:21;102190.88;;;5.54;65.80
22241;BME280;11289;52.524;13.694;2024-01-30T10:32:04;102189.91;;;5.66;65.33
22241;BME280;11289;52.524;13.694;2024-01-30T10:34:30;102182.50;;;5.71;64.89
22241;BME280;11289;52.524;13.694;2024-01-30T10:37:00;102191.97;;;5.81;63.92
22241;BME280;11289;52.524;13.694;2024-01-30T10:39:38;102176.56;;;5.85;64.36
22241;BME280;11289;52.524;13.694;2024-01-30T10:42:19;102179.13;;;5.91;63.13
22241;BME280;11289;52.524;13.694;2024-01-30T10:45:12;102180.34;;;6.01;62.84
22241;BME280;11289;52.524;13.694;2024-01-30T10:47:40;102172.41;;;6.04;62.16
22241;BME280;11289;52.524;13.694;2024-01-30T10:50:10;102169.09;;;6.07;62.38
22241;BME280;11289;52.524;13.694;2024-01-30T10:52:36;102179.13;;;6.19;62.55
22241;BME280;11289;52.524;13.694;2024-01-30T10:55:04;102176.72;;;6.27;62.84
22241;BME280;11289;52.524;13.694;2024-01-30T10:57:34;102169.06;;;6.35;62.66
22241;BME280;11289;52.524;13.694;2024-01-30T11:00:02;102174.88;;;6.38;62.16
22241;BME280;11289;52.524;13.694;2024-01-30T11:02:31;102166.91;;;6.42;61.29
22241;BME280;11289;52.524;13.694;2024-01-30T11:04:59;102170.50;;;6.48;61.34
22241;BME280;11289;52.524;13.694;2024-01-30T11:07:26;102173.88;;;6.55;62.40
22241;BME280;11289;52.524;13.694;2024-01-30T11:10:03;102169.47;;;6.59;61.05
22241;BME280;11289;52.524;13.694;2024-01-30T11:12:33;102173.91;;;6.60;61.57
22241;BME280;11289;52.524;13.694;2024-01-30T11:15:29;102165.09;;;6.63;60.99
22241;BME280;11289;52.524;13.694;2024-01-30T11:17:57;102165.91;;;6.63;60.87
22241;BME280;11289;52.524;13.694;2024-01-30T11:20:27;102169.81;;;6.68;60.81
22241;BME280;11289;52.524;13.694;2024-01-30T11:22:57;102163.47;;;6.67;60.32
22241;BME280;11289;52.524;13.694;2024-01-30T11:25:24;102158.81;;;6.73;60.94
22241;BME280;11289;52.524;13.694;2024-01-30T11:27:52;102146.91;;;6.67;60.34
22241;BME280;11289;52.524;13.694;2024-01-30T11:30:28;102153.88;;;6.80;60.24
22241;BME280;11289;52.524;13.694;2024-01-30T11:35:37;102144.75;;;6.79;59.94
22241;BME280;11289;52.524;13.694;2024-01-30T11:38:06;102147.00;;;6.83;59.03
22241;BME280;11289;52.524;13.694;2024-01-30T11:40:33;102145.88;;;6.84;60.26
22241;BME280;11289;52.524;13.694;2024-01-30T11:43:01;102138.72;;;6.83;59.58
22241;BME280;11289;52.524;13.694;2024-01-30T11:45:28;102150.09;;;6.91;60.46
22241;BME280;11289;52.524;13.694;2024-01-30T11:47:54;102145.38;;;6.92;59.42
22241;BME280;11289;52.524;13.694;2024-01-30T11:50:20;102145.38;;;6.97;59.76
22241;BME280;11289;52.524;13.694;2024-01-30T11:52:47;102147.38;;;7.02;60.08
22241;BME280;11289;52.524;13.694;2024-01-30T11:55:16;102142.66;;;7.02;59.54
22241;BME280;11289;52.524;13.694;2024-01-30T11:57:43;102140.50;;;7.09;59.86
22241;BME280;11289;52.524;13.694;2024-01-30T12:00:16;102146.59;;;7.17;59.97
22241;BME280;11289;52.524;13.694;2024-01-30T12:02:43;102139.97;;;7.23;58.97
22241;BME280;11289;52.524;13.694;2024-01-30T12:05:09;102132.81;;;7.27;58.14
22241;BME280;11289;52.524;13.694;2024-01-30T12:07:35;102140.31;;;7.37;58.41
22241;BME280;11289;52.524;13.694;2024-01-30T12:10:02;102134.50;;;7.43;58.80
22241;BME280;11289;52.524;13.694;2024-01-30T12:12:29;102136.47;;;7.48;57.93
22241;BME280;11289;52.524;13.694;2024-01-30T12:14:56;102140.59;;;7.50;57.81
22241;BME280;11289;52.524;13.694;2024-01-30T12:17:29;102135.91;;;7.56;57.70
22241;BME280;11289;52.524;13.694;2024-01-30T12:20:05;102129.28;;;7.57;57.10
22241;BME280;11289;52.524;13.694;2024-01-30T12:22:40;102137.03;;;7.60;57.17
22241;BME280;11289;52.524;13.694;2024-01-30T12:25:11;102126.28;;;7.69;57.72
22241;BME280;11289;52.524;13.694;2024-01-30T12:27:37;102123.53;;;7.74;57.58
22241;BME280;11289;52.524;13.694;2024-01-30T12:30:07;102118.81;;;7.75;57.41
22241;BME280;11289;52.524;13.694;2024-01-30T12:32:41;102131.81;;;7.79;56.87
22241;BME280;11289;52.524;13.694;2024-01-30T12:35:11;102119.94;;;7.79;57.75
22241;BME280;11289;52.524;13.694;2024-01-30T12:37:37;102120.22;;;7.77;57.75
22241;BME280;11289;52.524;13.694;2024-01-30T12:40:04;102113.28;;;7.75;57.35
22241;BME280;11289;52.524;13.694;2024-01-30T12:42:30;102108.31;;;7.72;57.63
22241;BME280;11289;52.524;13.694;2024-01-30T12:44:59;102108.31;;;7.72;58.00
22241;BME280;11289;52.524;13.694;2024-01-30T12:47:25;102103.34;;;7.69;57.88